Udine-Campoformido Air Base

LIPD · Friuli Venezia Giulia, 意大利

METAR LIPD · Udine-Campoformido Air Base

罗盘
风向 的 风向 的 风向 到 风向 060° Udine-Campoformido Air Base 4/22
风: 4 kt, 2 beaufort

4 kt

1 kt
改变
0 1.000 2.000 3.000 4.000 5.000
OVC 4.600 ft
METAR LIPQ 040420Z AUTO 06004KT 360V100 9999 RA OVC046/// 09/07 Q1014

METAR Udine-Campoformido Air Base - LIPD/UDN

Udine-Campoformido Air Base是,意大利中的小机场。 该机场有一条跑道: 4/22. 该领域的国际民航组织标志是LIPD 它的国际航空运输协会代码是UDN.

这份报告是针对2022年12月4日 05:20, 当地时间在Trieste–Friuli Venezia Giulia Airport进行的。

机场观察

风向为060°,速度为4 kt。 风向在360°和100°之间变化。

可见度为10 km 或者更多。

有乌云密布在4.600 ft的高度。 破损或更高的上限为4.600 ft。

当前天气为雨。 温度为9 °C,阵风为7 °C。 露点为7 °C,相对湿度为87%。 海平面上的气压为1014 hPa (QNH)。

白天

今天,太阳从07:32升起,在16:22降落。 这适用于Udine-Campoformido Air Base,世界夏令时可能有所不同。 当地时间与世界标准时间之间的时差为+1 小时。 当前,没有夏令时有效。

公司介绍

在这个机场,你可以找到飞行学校 和 跳伞中心。 这个机场上的公司有Aero Club Friulano 和 UPnGO Centro Paracadutismo F.v.g. - UDINE -。

体会

到Vliegles.nl去找飞行课程,跳伞和其他飞行体验。 浏览页面,了解Udine-Campoformido Air Base附近所有可用的活动。 你也可以使用搜索功能来寻找你所在地附近的特定飞行课程、跳伞或其他飞行体验。

跑道

Id 标题 侧风 逆风 侧风 %
4/22 040°-220° 1 kt 4 kt 34 %

逆风成分最大的方向会被突出显示,并用于横风计算。 这并不一定意味着这个方向在使用。

乌云

4.600 ft OVC 乌云密布

温度 & 天气

天气
温度 9 °C
露点 7 °C
相对湿度 87%
风寒 7 °C
Kp-index 1 (0-9)

白天

日出
07:30 (1:48)
中午
11:56
日落
16:22

小工具

你想在你的网站上有一个关于Udine-Campoformido Air Base的当前航空天气(METAR)的小部件吗?

显示HTML代码

我们和第三方通过cookies跟踪您在我们网站上的互联网行为。如果你继续,我们认为你同意我们的饼干政策